EGLCEGSS

Guest
Details From EGLC - London City
To EGSS - London Stansted
Flight Number -
Tags Routegen Generated
Created
Modified
Stats Distance 28 nm / 52 km
Max Altitude 100 ft / 30 m
Waypoints 5
Social Downloads 4
Likes 0
Share VATSIM

Download

Looking for another format? Having issues loading an existing format? Contact us
Advertisement - Login to hide

Notes

Departing runway 9 EGLC. Arriving runway 4 EGSS.

Route

EGLC +51.50_+000.18 +51.66_+000.16 +51.82_+000.14 EGSS

ID Type Via Altitude Latitude Longitude Leg Dist Tot Dist Heading (true) Name
O EGLC APT - 0 ft / 0 m 51.50489˚ 0.06592˚ - 0 nm - -
+51.50_+000.18 LATLON - 100 ft / 30 m 51.50113˚ 0.18202˚ 4 nm 4 nm 93° / 93° -
+51.66_+000.16 LATLON - 100 ft / 30 m 51.66155˚ 0.16119˚ 9 nm 14 nm 355° / 355° -
+51.82_+000.14 LATLON - 100 ft / 30 m 51.82197˚ 0.14036˚ 9 nm 23 nm 355° / 355° -
O EGSS APT - 0 ft / 0 m 51.87508˚ 0.21993˚ 4 nm 28 nm 43° / 43° -

Altitude Profile

Advertisement - Login to hide

EGLC

Details ICAO EGLC (LCY)
Name London City
Region United Kingdom
Timezone Europe/London (UTC+0.0)
Stats Elevation 19 ft / 6 m (AMSL)
Location 51.505231° 0.055175°
Runways 1
Magnetic Variation 0.383° W

METAR

EGLC 180120Z AUTO 30006KT 280V350 9999 BKN030 08/03 Q1022

Decode

TAF

Not found

Departure Runways

ID Width Length Bearing (true) Bearing (mag) Surface Threshold Offset Overrun Length
09 98 ft / 30 m 4,931 ft / 1,503 m 92.89° 93.27° Concrete 322 ft / 98 m 164 ft / 50 m
27 98 ft / 30 m 4,931 ft / 1,503 m 272.91° 273.29° Concrete 243 ft / 74 m 279 ft / 85 m

EGSS

Details ICAO EGSS (STN)
Name London Stansted
Region United Kingdom
Timezone Europe/London (UTC+0.0)
Stats Elevation 348 ft / 106 m (AMSL)
Location 51.885097° 0.234962°
Runways 1
Magnetic Variation 0.361° W

METAR

EGSS 180120Z AUTO 32007KT 9999 NCD 04/02 Q1022

Decode

TAF

TAF EGSS 172258Z 1800/1906 32010KT 9999 FEW030 PROB30 1804/1810 8000 BECMG 1814/1816 VRB03KT 6000 BECMG 1816/1819 1200 BR PROB40 1819/1906 0300 FG FZFG VV///

Decode

Destination Runways

ID Width Length Bearing (true) Bearing (mag) Surface Threshold Offset Overrun Length
04 151 ft / 46 m 10,011 ft / 3,052 m 42.79° 43.15° Asphalt 994 ft / 303 m 0 ft / 0 m
22 151 ft / 46 m 10,011 ft / 3,052 m 222.81° 223.17° Asphalt 0 ft / 0 m 0 ft / 0 m

Approach Navaids

Runway Type Ident Frequency Range Bearing (true) Bearing (mag) Slope Elevation
04 Localiser ISED 110.50 MHz 18 nm / 33 km 42.80° 43.16° - 348 ft / 106 m (AMSL)
04 Glidescope ISED 110.50 MHz 10 nm / 19 km 42.80° 43.16° 3.00° 348 ft / 106 m (AMSL)
04 DME ISED 110.50 MHz 18 nm / 33 km - - - 348 ft / 106 m (AMSL)
22 Localiser ISX 110.50 MHz 18 nm / 33 km 222.80° 223.16° - 348 ft / 106 m (AMSL)
22 Glidescope ISX 110.50 MHz 10 nm / 19 km 222.80° 223.16° 3.00° 348 ft / 106 m (AMSL)
22 DME ISX 110.50 MHz 18 nm / 33 km - - - 348 ft / 106 m (AMSL)

Popular Alternatives